sensor_id;sensor_type;location;lat;lon;timestamp;temperature;humidity
9043;DHT22;4556;49.150;8.808;2023-03-26T00:01:48;7.60;99.90
9043;DHT22;4556;49.150;8.808;2023-03-26T00:04:16;7.60;99.90
9043;DHT22;4556;49.150;8.808;2023-03-26T00:06:46;8.20;99.90
9043;DHT22;4556;49.150;8.808;2023-03-26T00:12:22;7.50;99.90
9043;DHT22;4556;49.150;8.808;2023-03-26T00:14:49;7.30;99.90
9043;DHT22;4556;49.150;8.808;2023-03-26T00:17:16;7.20;99.90
9043;DHT22;4556;49.150;8.808;2023-03-26T00:19:44;7.10;99.90
9043;DHT22;4556;49.150;8.808;2023-03-26T00:22:11;7.80;99.90
9043;DHT22;4556;49.150;8.808;2023-03-26T00:24:41;7.10;99.90
9043;DHT22;4556;49.150;8.808;2023-03-26T00:27:18;7.10;99.90
9043;DHT22;4556;49.150;8.808;2023-03-26T00:29:58;7.00;99.90
9043;DHT22;4556;49.150;8.808;2023-03-26T00:32:26;7.20;99.90
9043;DHT22;4556;49.150;8.808;2023-03-26T00:35:10;7.30;99.90
9043;DHT22;4556;49.150;8.808;2023-03-26T00:37:51;7.20;99.90
9043;DHT22;4556;49.150;8.808;2023-03-26T00:40:18;7.40;99.90
9043;DHT22;4556;49.150;8.808;2023-03-26T00:42:51;7.30;99.90
9043;DHT22;4556;49.150;8.808;2023-03-26T00:45:31;7.20;99.90
9043;DHT22;4556;49.150;8.808;2023-03-26T00:47:58;7.20;99.90
9043;DHT22;4556;49.150;8.808;2023-03-26T00:50:26;7.10;99.90
9043;DHT22;4556;49.150;8.808;2023-03-26T00:52:53;7.10;99.90
9043;DHT22;4556;49.150;8.808;2023-03-26T00:55:47;7.00;99.90
9043;DHT22;4556;49.150;8.808;2023-03-26T00:58:15;6.90;99.90
9043;DHT22;4556;49.150;8.808;2023-03-26T01:00:45;6.90;99.90
9043;DHT22;4556;49.150;8.808;2023-03-26T01:03:16;6.70;99.90
9043;DHT22;4556;49.150;8.808;2023-03-26T01:05:47;6.70;99.90
9043;DHT22;4556;49.150;8.808;2023-03-26T01:08:27;6.80;99.90
9043;DHT22;4556;49.150;8.808;2023-03-26T01:10:58;6.90;99.90
9043;DHT22;4556;49.150;8.808;2023-03-26T01:13:32;6.70;99.90
9043;DHT22;4556;49.150;8.808;2023-03-26T01:16:05;6.50;99.90
9043;DHT22;4556;49.150;8.808;2023-03-26T01:18:44;6.40;99.90
9043;DHT22;4556;49.150;8.808;2023-03-26T01:21:28;6.20;99.90
9043;DHT22;4556;49.150;8.808;2023-03-26T01:24:07;6.30;99.90
9043;DHT22;4556;49.150;8.808;2023-03-26T01:27:04;6.30;99.90
9043;DHT22;4556;49.150;8.808;2023-03-26T01:29:41;6.50;99.90
9043;DHT22;4556;49.150;8.808;2023-03-26T01:32:21;6.20;99.90
9043;DHT22;4556;49.150;8.808;2023-03-26T01:35:30;6.20;99.90
9043;DHT22;4556;49.150;8.808;2023-03-26T01:38:05;6.20;99.90
9043;DHT22;4556;49.150;8.808;2023-03-26T01:40:53;6.20;99.90
9043;DHT22;4556;49.150;8.808;2023-03-26T01:43:42;6.20;99.90
9043;DHT22;4556;49.150;8.808;2023-03-26T01:46:23;6.10;99.90
9043;DHT22;4556;49.150;8.808;2023-03-26T01:49:05;6.80;99.90
9043;DHT22;4556;49.150;8.808;2023-03-26T01:51:38;6.10;99.90
9043;DHT22;4556;49.150;8.808;2023-03-26T01:54:18;6.10;99.90
9043;DHT22;4556;49.150;8.808;2023-03-26T01:57:02;6.10;99.90
9043;DHT22;4556;49.150;8.808;2023-03-26T01:59:48;6.00;99.90
9043;DHT22;4556;49.150;8.808;2023-03-26T02:02:22;6.30;99.90
9043;DHT22;4556;49.150;8.808;2023-03-26T02:05:07;6.20;99.90
9043;DHT22;4556;49.150;8.808;2023-03-26T02:07:56;6.10;99.90
9043;DHT22;4556;49.150;8.808;2023-03-26T02:10:44;6.50;99.90
9043;DHT22;4556;49.150;8.808;2023-03-26T02:13:28;6.10;99.90
9043;DHT22;4556;49.150;8.808;2023-03-26T02:15:57;6.40;99.90
9043;DHT22;4556;49.150;8.808;2023-03-26T02:18:25;6.20;99.90
9043;DHT22;4556;49.150;8.808;2023-03-26T02:21:05;6.40;99.90
9043;DHT22;4556;49.150;8.808;2023-03-26T02:23:34;6.40;99.90
9043;DHT22;4556;49.150;8.808;2023-03-26T02:26:04;6.30;99.90
9043;DHT22;4556;49.150;8.808;2023-03-26T02:28:33;6.20;99.90
9043;DHT22;4556;49.150;8.808;2023-03-26T02:31:00;6.20;99.90
9043;DHT22;4556;49.150;8.808;2023-03-26T02:33:28;6.10;99.90
9043;DHT22;4556;49.150;8.808;2023-03-26T02:35:56;6.00;99.90
9043;DHT22;4556;49.150;8.808;2023-03-26T02:38:26;5.90;99.90
9043;DHT22;4556;49.150;8.808;2023-03-26T02:41:08;5.80;99.90
9043;DHT22;4556;49.150;8.808;2023-03-26T02:46:43;5.70;99.90
9043;DHT22;4556;49.150;8.808;2023-03-26T02:49:10;6.00;99.90
9043;DHT22;4556;49.150;8.808;2023-03-26T02:51:37;6.50;99.90
9043;DHT22;4556;49.150;8.808;2023-03-26T02:54:05;6.30;99.90
9043;DHT22;4556;49.150;8.808;2023-03-26T02:56:33;5.80;99.90
9043;DHT22;4556;49.150;8.808;2023-03-26T02:59:02;5.90;99.90
9043;DHT22;4556;49.150;8.808;2023-03-26T03:01:29;5.60;99.90
9043;DHT22;4556;49.150;8.808;2023-03-26T03:04:01;5.60;99.90
9043;DHT22;4556;49.150;8.808;2023-03-26T03:06:28;5.70;99.90
9043;DHT22;4556;49.150;8.808;2023-03-26T03:08:59;5.80;99.90
9043;DHT22;4556;49.150;8.808;2023-03-26T03:11:27;5.90;99.90
9043;DHT22;4556;49.150;8.808;2023-03-26T03:13:54;5.90;99.90
9043;DHT22;4556;49.150;8.808;2023-03-26T03:16:21;6.10;99.90
9043;DHT22;4556;49.150;8.808;2023-03-26T03:19:07;5.80;99.90
9043;DHT22;4556;49.150;8.808;2023-03-26T03:21:37;5.80;99.90
9043;DHT22;4556;49.150;8.808;2023-03-26T03:24:26;5.80;99.90
9043;DHT22;4556;49.150;8.808;2023-03-26T03:26:53;5.70;99.90
9043;DHT22;4556;49.150;8.808;2023-03-26T03:29:21;5.90;99.90
9043;DHT22;4556;49.150;8.808;2023-03-26T03:31:48;5.80;99.90
9043;DHT22;4556;49.150;8.808;2023-03-26T03:34:17;5.80;99.90
9043;DHT22;4556;49.150;8.808;2023-03-26T03:36:43;5.80;99.90
9043;DHT22;4556;49.150;8.808;2023-03-26T03:39:14;5.60;99.90
9043;DHT22;4556;49.150;8.808;2023-03-26T03:41:41;5.70;99.90
9043;DHT22;4556;49.150;8.808;2023-03-26T03:44:10;5.80;99.90
9043;DHT22;4556;49.150;8.808;2023-03-26T03:46:57;5.90;99.90
9043;DHT22;4556;49.150;8.808;2023-03-26T03:49:38;5.90;99.90
9043;DHT22;4556;49.150;8.808;2023-03-26T03:52:05;6.00;99.90
9043;DHT22;4556;49.150;8.808;2023-03-26T03:54:38;5.70;99.90
9043;DHT22;4556;49.150;8.808;2023-03-26T03:57:15;5.70;99.90
9043;DHT22;4556;49.150;8.808;2023-03-26T04:00:02;5.70;99.90
9043;DHT22;4556;49.150;8.808;2023-03-26T04:02:32;5.80;99.90
9043;DHT22;4556;49.150;8.808;2023-03-26T04:05:35;5.80;99.90
9043;DHT22;4556;49.150;8.808;2023-03-26T04:07:55;5.90;99.90
9043;DHT22;4556;49.150;8.808;2023-03-26T04:10:25;6.00;99.90
9043;DHT22;4556;49.150;8.808;2023-03-26T04:13:03;5.90;99.90
9043;DHT22;4556;49.150;8.808;2023-03-26T04:15:49;5.90;99.90
9043;DHT22;4556;49.150;8.808;2023-03-26T04:18:22;5.90;99.90
9043;DHT22;4556;49.150;8.808;2023-03-26T04:20:59;6.00;99.90
9043;DHT22;4556;49.150;8.808;2023-03-26T04:23:28;6.00;99.90
9043;DHT22;4556;49.150;8.808;2023-03-26T04:26:35;6.30;99.90
9043;DHT22;4556;49.150;8.808;2023-03-26T04:29:00;6.10;99.90
9043;DHT22;4556;49.150;8.808;2023-03-26T04:31:41;6.40;99.90
9043;DHT22;4556;49.150;8.808;2023-03-26T04:34:15;5.80;99.90
9043;DHT22;4556;49.150;8.808;2023-03-26T04:36:53;5.80;99.90
9043;DHT22;4556;49.150;8.808;2023-03-26T04:39:20;5.80;99.90
9043;DHT22;4556;49.150;8.808;2023-03-26T04:41:51;5.80;99.90
9043;DHT22;4556;49.150;8.808;2023-03-26T04:44:24;5.90;99.90
9043;DHT22;4556;49.150;8.808;2023-03-26T04:46:59;5.80;99.90
9043;DHT22;4556;49.150;8.808;2023-03-26T04:49:37;6.00;99.90
9043;DHT22;4556;49.150;8.808;2023-03-26T04:52:09;6.10;99.90
9043;DHT22;4556;49.150;8.808;2023-03-26T04:54:37;6.30;99.90
9043;DHT22;4556;49.150;8.808;2023-03-26T04:57:24;6.00;99.90
9043;DHT22;4556;49.150;8.808;2023-03-26T05:00:20;6.00;99.90
9043;DHT22;4556;49.150;8.808;2023-03-26T05:02:47;6.00;99.90
9043;DHT22;4556;49.150;8.808;2023-03-26T05:05:16;6.10;99.90
9043;DHT22;4556;49.150;8.808;2023-03-26T05:07:48;6.10;99.90
9043;DHT22;4556;49.150;8.808;2023-03-26T05:10:16;6.10;99.90
9043;DHT22;4556;49.150;8.808;2023-03-26T05:12:44;6.10;99.90
9043;DHT22;4556;49.150;8.808;2023-03-26T05:15:12;6.20;99.90
9043;DHT22;4556;49.150;8.808;2023-03-26T05:17:40;6.10;99.90
9043;DHT22;4556;49.150;8.808;2023-03-26T05:20:23;6.00;99.90
9043;DHT22;4556;49.150;8.808;2023-03-26T05:22:52;6.20;99.90
9043;DHT22;4556;49.150;8.808;2023-03-26T05:25:20;6.30;99.90
9043;DHT22;4556;49.150;8.808;2023-03-26T05:27:48;6.30;99.90
9043;DHT22;4556;49.150;8.808;2023-03-26T05:30:17;6.30;99.90
9043;DHT22;4556;49.150;8.808;2023-03-26T05:33:01;6.20;99.90
9043;DHT22;4556;49.150;8.808;2023-03-26T05:35:28;6.20;99.90
9043;DHT22;4556;49.150;8.808;2023-03-26T05:41:17;6.40;99.90
9043;DHT22;4556;49.150;8.808;2023-03-26T05:43:44;6.40;99.90
9043;DHT22;4556;49.150;8.808;2023-03-26T05:46:17;6.80;99.90
9043;DHT22;4556;49.150;8.808;2023-03-26T05:48:58;6.30;99.90
9043;DHT22;4556;49.150;8.808;2023-03-26T05:51:33;6.40;99.90
9043;DHT22;4556;49.150;8.808;2023-03-26T05:54:11;6.40;99.90
9043;DHT22;4556;49.150;8.808;2023-03-26T05:56:39;6.40;99.90
9043;DHT22;4556;49.150;8.808;2023-03-26T05:59:06;6.90;99.90
9043;DHT22;4556;49.150;8.808;2023-03-26T06:01:34;6.40;99.90
9043;DHT22;4556;49.150;8.808;2023-03-26T06:04:13;6.60;99.90
9043;DHT22;4556;49.150;8.808;2023-03-26T06:06:40;6.60;99.90
9043;DHT22;4556;49.150;8.808;2023-03-26T06:09:07;6.80;99.90
9043;DHT22;4556;49.150;8.808;2023-03-26T06:14:22;6.80;99.90
9043;DHT22;4556;49.150;8.808;2023-03-26T06:16:49;6.90;99.90
9043;DHT22;4556;49.150;8.808;2023-03-26T06:19:18;6.90;99.90
9043;DHT22;4556;49.150;8.808;2023-03-26T06:21:55;7.00;99.90
9043;DHT22;4556;49.150;8.808;2023-03-26T06:24:22;7.00;99.90
9043;DHT22;4556;49.150;8.808;2023-03-26T06:26:55;7.00;99.90
9043;DHT22;4556;49.150;8.808;2023-03-26T06:30:01;7.10;99.90
9043;DHT22;4556;49.150;8.808;2023-03-26T06:32:28;7.00;99.90
9043;DHT22;4556;49.150;8.808;2023-03-26T06:34:57;7.00;99.90
9043;DHT22;4556;49.150;8.808;2023-03-26T06:37:36;7.00;99.90
9043;DHT22;4556;49.150;8.808;2023-03-26T06:40:04;7.20;99.90
9043;DHT22;4556;49.150;8.808;2023-03-26T06:42:45;7.20;99.90
9043;DHT22;4556;49.150;8.808;2023-03-26T06:45:18;7.30;99.90
9043;DHT22;4556;49.150;8.808;2023-03-26T06:47:55;7.30;99.90
9043;DHT22;4556;49.150;8.808;2023-03-26T06:50:22;7.20;99.90
9043;DHT22;4556;49.150;8.808;2023-03-26T06:52:52;7.40;99.90
9043;DHT22;4556;49.150;8.808;2023-03-26T06:57:07;7.40;99.90
9043;DHT22;4556;49.150;8.808;2023-03-26T06:58:27;7.50;99.90
9043;DHT22;4556;49.150;8.808;2023-03-26T07:00:56;7.50;99.90
9043;DHT22;4556;49.150;8.808;2023-03-26T07:03:23;7.50;99.90
9043;DHT22;4556;49.150;8.808;2023-03-26T07:05:50;7.40;99.90
9043;DHT22;4556;49.150;8.808;2023-03-26T07:08:20;7.30;99.90
9043;DHT22;4556;49.150;8.808;2023-03-26T07:10:52;7.20;99.90
9043;DHT22;4556;49.150;8.808;2023-03-26T07:13:19;7.30;99.90
9043;DHT22;4556;49.150;8.808;2023-03-26T07:15:47;7.50;99.90
9043;DHT22;4556;49.150;8.808;2023-03-26T07:18:16;7.50;99.90
9043;DHT22;4556;49.150;8.808;2023-03-26T07:20:43;7.50;99.90
9043;DHT22;4556;49.150;8.808;2023-03-26T07:23:16;7.50;99.90
9043;DHT22;4556;49.150;8.808;2023-03-26T07:25:45;7.80;99.90
9043;DHT22;4556;49.150;8.808;2023-03-26T07:28:22;7.80;99.90
9043;DHT22;4556;49.150;8.808;2023-03-26T07:30:59;7.80;99.90
9043;DHT22;4556;49.150;8.808;2023-03-26T07:33:48;7.90;99.90
9043;DHT22;4556;49.150;8.808;2023-03-26T07:36:31;8.00;99.90
9043;DHT22;4556;49.150;8.808;2023-03-26T07:39:13;8.00;99.90
9043;DHT22;4556;49.150;8.808;2023-03-26T07:41:49;8.00;99.90
9043;DHT22;4556;49.150;8.808;2023-03-26T07:44:33;7.90;99.90
9043;DHT22;4556;49.150;8.808;2023-03-26T07:47:14;7.90;99.90
9043;DHT22;4556;49.150;8.808;2023-03-26T07:49:45;8.70;99.90
9043;DHT22;4556;49.150;8.808;2023-03-26T07:52:12;7.70;99.90
9043;DHT22;4556;49.150;8.808;2023-03-26T07:54:40;7.80;99.90
9043;DHT22;4556;49.150;8.808;2023-03-26T07:57:19;7.80;99.90
9043;DHT22;4556;49.150;8.808;2023-03-26T08:00:06;7.80;99.90
9043;DHT22;4556;49.150;8.808;2023-03-26T08:03:01;7.60;99.90
9043;DHT22;4556;49.150;8.808;2023-03-26T08:05:41;7.60;99.90
9043;DHT22;4556;49.150;8.808;2023-03-26T08:08:15;7.50;99.90
9043;DHT22;4556;49.150;8.808;2023-03-26T08:10:56;7.50;99.90
9043;DHT22;4556;49.150;8.808;2023-03-26T08:13:42;7.50;99.90
9043;DHT22;4556;49.150;8.808;2023-03-26T08:16:19;7.50;99.90
9043;DHT22;4556;49.150;8.808;2023-03-26T08:18:54;7.60;99.90
9043;DHT22;4556;49.150;8.808;2023-03-26T08:21:27;7.50;99.90
9043;DHT22;4556;49.150;8.808;2023-03-26T08:23:59;7.50;99.90
9043;DHT22;4556;49.150;8.808;2023-03-26T08:26:33;7.60;99.90
9043;DHT22;4556;49.150;8.808;2023-03-26T08:29:09;7.60;99.90
9043;DHT22;4556;49.150;8.808;2023-03-26T08:31:44;7.60;99.90
9043;DHT22;4556;49.150;8.808;2023-03-26T08:34:12;7.80;99.90
9043;DHT22;4556;49.150;8.808;2023-03-26T08:36:41;7.80;99.90
9043;DHT22;4556;49.150;8.808;2023-03-26T08:39:08;7.90;99.90
9043;DHT22;4556;49.150;8.808;2023-03-26T08:45:11;7.80;99.90
9043;DHT22;4556;49.150;8.808;2023-03-26T08:54:30;7.70;99.90
9043;DHT22;4556;49.150;8.808;2023-03-26T08:57:30;7.70;99.90
9043;DHT22;4556;49.150;8.808;2023-03-26T09:00:22;7.70;99.90
9043;DHT22;4556;49.150;8.808;2023-03-26T09:03:06;7.70;99.90
9043;DHT22;4556;49.150;8.808;2023-03-26T09:12:00;7.70;99.90
9043;DHT22;4556;49.150;8.808;2023-03-26T09:18:04;7.80;99.90
9043;DHT22;4556;49.150;8.808;2023-03-26T09:20:53;7.90;99.90
9043;DHT22;4556;49.150;8.808;2023-03-26T09:26:45;8.40;99.90
9043;DHT22;4556;49.150;8.808;2023-03-26T09:36:55;8.50;99.90
9043;DHT22;4556;49.150;8.808;2023-03-26T09:39:51;8.50;99.90
9043;DHT22;4556;49.150;8.808;2023-03-26T09:48:59;8.50;99.90
9043;DHT22;4556;49.150;8.808;2023-03-26T09:51:49;8.50;99.90
9043;DHT22;4556;49.150;8.808;2023-03-26T09:57:39;8.50;99.90
9043;DHT22;4556;49.150;8.808;2023-03-26T10:00:30;8.50;99.90
9043;DHT22;4556;49.150;8.808;2023-03-26T10:03:12;8.60;99.90
9043;DHT22;4556;49.150;8.808;2023-03-26T10:05:55;8.60;99.90
9043;DHT22;4556;49.150;8.808;2023-03-26T10:08:37;8.50;99.90
9043;DHT22;4556;49.150;8.808;2023-03-26T10:11:12;8.60;99.90
9043;DHT22;4556;49.150;8.808;2023-03-26T10:13:54;8.60;99.90
9043;DHT22;4556;49.150;8.808;2023-03-26T10:16:32;8.50;99.90
9043;DHT22;4556;49.150;8.808;2023-03-26T10:19:30;8.70;99.90
9043;DHT22;4556;49.150;8.808;2023-03-26T10:22:10;8.60;99.90
9043;DHT22;4556;49.150;8.808;2023-03-26T10:27:43;8.90;99.90
9043;DHT22;4556;49.150;8.808;2023-03-26T10:30:46;9.10;99.90
9043;DHT22;4556;49.150;8.808;2023-03-26T10:33:41;9.50;99.90
9043;DHT22;4556;49.150;8.808;2023-03-26T10:36:28;9.80;99.90
9043;DHT22;4556;49.150;8.808;2023-03-26T10:39:32;10.00;99.90
9043;DHT22;4556;49.150;8.808;2023-03-26T10:42:12;10.20;99.90
9043;DHT22;4556;49.150;8.808;2023-03-26T10:44:57;10.60;99.90
9043;DHT22;4556;49.150;8.808;2023-03-26T10:47:39;10.60;99.90
9043;DHT22;4556;49.150;8.808;2023-03-26T10:53:16;10.80;99.90
9043;DHT22;4556;49.150;8.808;2023-03-26T10:55:53;11.10;99.90
9043;DHT22;4556;49.150;8.808;2023-03-26T10:58:24;11.20;99.90
9043;DHT22;4556;49.150;8.808;2023-03-26T11:00:59;11.40;99.90
9043;DHT22;4556;49.150;8.808;2023-03-26T11:03:55;11.60;99.90
9043;DHT22;4556;49.150;8.808;2023-03-26T11:06:34;11.60;99.90
9043;DHT22;4556;49.150;8.808;2023-03-26T11:09:27;11.70;99.90
9043;DHT22;4556;49.150;8.808;2023-03-26T11:12:18;11.60;99.90
9043;DHT22;4556;49.150;8.808;2023-03-26T11:14:54;11.60;99.90
9043;DHT22;4556;49.150;8.808;2023-03-26T11:17:34;12.20;99.90
9043;DHT22;4556;49.150;8.808;2023-03-26T11:20:17;12.10;99.90
9043;DHT22;4556;49.150;8.808;2023-03-26T11:23:10;12.20;99.90
9043;DHT22;4556;49.150;8.808;2023-03-26T11:25:56;12.10;99.90
9043;DHT22;4556;49.150;8.808;2023-03-26T11:29:01;12.00;99.90
9043;DHT22;4556;49.150;8.808;2023-03-26T11:31:50;11.90;99.90
9043;DHT22;4556;49.150;8.808;2023-03-26T11:34:26;11.80;99.90
9043;DHT22;4556;49.150;8.808;2023-03-26T11:36:55;12.00;99.90
9043;DHT22;4556;49.150;8.808;2023-03-26T11:39:25;12.10;99.90
9043;DHT22;4556;49.150;8.808;2023-03-26T11:42:03;12.30;99.90
9043;DHT22;4556;49.150;8.808;2023-03-26T11:44:37;12.20;99.90
9043;DHT22;4556;49.150;8.808;2023-03-26T11:47:06;12.30;99.90
9043;DHT22;4556;49.150;8.808;2023-03-26T11:49:37;12.20;99.90
9043;DHT22;4556;49.150;8.808;2023-03-26T11:52:10;12.20;99.90
9043;DHT22;4556;49.150;8.808;2023-03-26T11:54:53;12.00;99.90
9043;DHT22;4556;49.150;8.808;2023-03-26T11:57:27;12.20;99.90
9043;DHT22;4556;49.150;8.808;2023-03-26T12:00:19;12.20;99.90
9043;DHT22;4556;49.150;8.808;2023-03-26T12:02:54;12.40;99.90
9043;DHT22;4556;49.150;8.808;2023-03-26T12:05:23;12.60;99.90
9043;DHT22;4556;49.150;8.808;2023-03-26T12:07:55;12.60;99.90
9043;DHT22;4556;49.150;8.808;2023-03-26T12:10:26;12.70;99.90
9043;DHT22;4556;49.150;8.808;2023-03-26T12:12:57;12.40;99.90
9043;DHT22;4556;49.150;8.808;2023-03-26T12:15:31;12.70;99.90
9043;DHT22;4556;49.150;8.808;2023-03-26T12:18:21;12.50;99.90
9043;DHT22;4556;49.150;8.808;2023-03-26T12:21:02;12.40;99.90
9043;DHT22;4556;49.150;8.808;2023-03-26T12:26:29;12.20;99.90
9043;DHT22;4556;49.150;8.808;2023-03-26T12:29:05;12.00;99.90
9043;DHT22;4556;49.150;8.808;2023-03-26T12:31:48;11.90;99.90
9043;DHT22;4556;49.150;8.808;2023-03-26T12:34:18;11.80;99.90
9043;DHT22;4556;49.150;8.808;2023-03-26T12:36:48;11.80;99.90
9043;DHT22;4556;49.150;8.808;2023-03-26T12:39:28;11.70;99.90
9043;DHT22;4556;49.150;8.808;2023-03-26T12:42:02;11.70;99.90
9043;DHT22;4556;49.150;8.808;2023-03-26T12:44:44;11.80;99.90
9043;DHT22;4556;49.150;8.808;2023-03-26T12:47:18;11.80;99.90
9043;DHT22;4556;49.150;8.808;2023-03-26T12:49:48;11.90;99.90
9043;DHT22;4556;49.150;8.808;2023-03-26T12:52:37;11.90;99.90
9043;DHT22;4556;49.150;8.808;2023-03-26T12:55:16;11.90;99.90
9043;DHT22;4556;49.150;8.808;2023-03-26T12:58:04;11.90;99.90
9043;DHT22;4556;49.150;8.808;2023-03-26T13:01:02;12.00;99.90
9043;DHT22;4556;49.150;8.808;2023-03-26T13:04:05;12.20;99.90
9043;DHT22;4556;49.150;8.808;2023-03-26T13:06:40;12.30;99.90
9043;DHT22;4556;49.150;8.808;2023-03-26T13:09:34;12.50;99.90
9043;DHT22;4556;49.150;8.808;2023-03-26T13:12:19;12.50;99.90
9043;DHT22;4556;49.150;8.808;2023-03-26T13:15:07;12.60;99.90
9043;DHT22;4556;49.150;8.808;2023-03-26T13:17:45;12.80;99.90
9043;DHT22;4556;49.150;8.808;2023-03-26T13:20:25;12.80;99.90
9043;DHT22;4556;49.150;8.808;2023-03-26T13:23:01;12.60;99.90
9043;DHT22;4556;49.150;8.808;2023-03-26T13:25:39;12.50;99.90
9043;DHT22;4556;49.150;8.808;2023-03-26T13:28:18;12.60;99.90
9043;DHT22;4556;49.150;8.808;2023-03-26T13:30:53;12.50;99.90
9043;DHT22;4556;49.150;8.808;2023-03-26T13:33:30;13.00;99.90
9043;DHT22;4556;49.150;8.808;2023-03-26T13:36:17;12.90;99.90
9043;DHT22;4556;49.150;8.808;2023-03-26T13:38:57;12.90;99.90
9043;DHT22;4556;49.150;8.808;2023-03-26T13:41:36;13.00;99.90
9043;DHT22;4556;49.150;8.808;2023-03-26T13:44:12;13.10;99.90
9043;DHT22;4556;49.150;8.808;2023-03-26T13:46:44;13.00;99.90
9043;DHT22;4556;49.150;8.808;2023-03-26T13:49:26;12.60;99.90
9043;DHT22;4556;49.150;8.808;2023-03-26T13:52:00;12.30;99.90
9043;DHT22;4556;49.150;8.808;2023-03-26T13:54:34;12.60;99.90
9043;DHT22;4556;49.150;8.808;2023-03-26T13:57:08;12.50;99.90
9043;DHT22;4556;49.150;8.808;2023-03-26T13:59:43;12.50;99.90
9043;DHT22;4556;49.150;8.808;2023-03-26T14:02:18;12.70;99.90
9043;DHT22;4556;49.150;8.808;2023-03-26T14:04:51;12.50;99.90
9043;DHT22;4556;49.150;8.808;2023-03-26T14:07:24;12.60;99.90
9043;DHT22;4556;49.150;8.808;2023-03-26T14:09:57;12.60;99.90
9043;DHT22;4556;49.150;8.808;2023-03-26T14:12:31;12.50;99.90
9043;DHT22;4556;49.150;8.808;2023-03-26T14:15:01;12.60;99.90
9043;DHT22;4556;49.150;8.808;2023-03-26T14:17:35;12.50;99.90
9043;DHT22;4556;49.150;8.808;2023-03-26T14:20:42;12.40;99.90
9043;DHT22;4556;49.150;8.808;2023-03-26T14:26:18;12.20;99.90
9043;DHT22;4556;49.150;8.808;2023-03-26T14:29:22;12.00;99.90
9043;DHT22;4556;49.150;8.808;2023-03-26T14:32:18;11.70;99.90
9043;DHT22;4556;49.150;8.808;2023-03-26T14:35:16;11.50;99.90
9043;DHT22;4556;49.150;8.808;2023-03-26T14:38:22;11.30;99.90
9043;DHT22;4556;49.150;8.808;2023-03-26T14:41:05;11.00;99.90
9043;DHT22;4556;49.150;8.808;2023-03-26T14:46:55;10.60;99.90
9043;DHT22;4556;49.150;8.808;2023-03-26T14:52:40;10.00;99.90
9043;DHT22;4556;49.150;8.808;2023-03-26T14:55:15;9.70;99.90
9043;DHT22;4556;49.150;8.808;2023-03-26T14:58:07;9.60;99.90
9043;DHT22;4556;49.150;8.808;2023-03-26T15:01:19;9.40;99.90
9043;DHT22;4556;49.150;8.808;2023-03-26T15:07:32;8.90;99.90
9043;DHT22;4556;49.150;8.808;2023-03-26T15:11:04;8.70;99.90
9043;DHT22;4556;49.150;8.808;2023-03-26T15:13:54;8.60;99.90
9043;DHT22;4556;49.150;8.808;2023-03-26T15:16:53;8.40;99.90
9043;DHT22;4556;49.150;8.808;2023-03-26T15:20:02;8.30;99.90
9043;DHT22;4556;49.150;8.808;2023-03-26T15:22:57;8.30;99.90
9043;DHT22;4556;49.150;8.808;2023-03-26T15:25:59;8.30;99.90
9043;DHT22;4556;49.150;8.808;2023-03-26T15:34:59;8.30;99.90
9043;DHT22;4556;49.150;8.808;2023-03-26T15:40:45;8.30;99.90
9043;DHT22;4556;49.150;8.808;2023-03-26T15:43:19;8.20;99.90
9043;DHT22;4556;49.150;8.808;2023-03-26T15:45:50;8.20;99.90
9043;DHT22;4556;49.150;8.808;2023-03-26T15:51:36;8.00;99.90
9043;DHT22;4556;49.150;8.808;2023-03-26T15:54:13;8.10;99.90
9043;DHT22;4556;49.150;8.808;2023-03-26T15:57:00;8.10;99.90
9043;DHT22;4556;49.150;8.808;2023-03-26T15:59:41;8.10;99.90
9043;DHT22;4556;49.150;8.808;2023-03-26T16:02:22;8.10;99.90
9043;DHT22;4556;49.150;8.808;2023-03-26T16:04:53;9.30;99.90
9043;DHT22;4556;49.150;8.808;2023-03-26T16:07:38;8.20;99.90
9043;DHT22;4556;49.150;8.808;2023-03-26T16:10:19;8.10;99.90
9043;DHT22;4556;49.150;8.808;2023-03-26T16:12:54;8.00;99.90
9043;DHT22;4556;49.150;8.808;2023-03-26T16:15:27;8.00;99.90
9043;DHT22;4556;49.150;8.808;2023-03-26T16:20:49;8.00;99.90
9043;DHT22;4556;49.150;8.808;2023-03-26T16:23:24;8.00;99.90
9043;DHT22;4556;49.150;8.808;2023-03-26T16:25:58;8.00;99.90
9043;DHT22;4556;49.150;8.808;2023-03-26T16:28:31;7.90;99.90
9043;DHT22;4556;49.150;8.808;2023-03-26T16:31:19;8.00;99.90
9043;DHT22;4556;49.150;8.808;2023-03-26T16:33:52;7.90;99.90
9043;DHT22;4556;49.150;8.808;2023-03-26T16:36:28;8.00;99.90
9043;DHT22;4556;49.150;8.808;2023-03-26T16:39:17;8.10;99.90
9043;DHT22;4556;49.150;8.808;2023-03-26T16:42:07;7.90;99.90
9043;DHT22;4556;49.150;8.808;2023-03-26T16:44:42;7.90;99.90
9043;DHT22;4556;49.150;8.808;2023-03-26T16:47:23;7.70;99.90
9043;DHT22;4556;49.150;8.808;2023-03-26T16:50:16;8.30;99.90
9043;DHT22;4556;49.150;8.808;2023-03-26T16:53:22;7.80;99.90
9043;DHT22;4556;49.150;8.808;2023-03-26T16:56:04;7.80;99.90
9043;DHT22;4556;49.150;8.808;2023-03-26T16:58:42;7.70;99.90
9043;DHT22;4556;49.150;8.808;2023-03-26T17:01:38;7.70;99.90
9043;DHT22;4556;49.150;8.808;2023-03-26T17:04:26;7.70;99.90
9043;DHT22;4556;49.150;8.808;2023-03-26T17:07:07;7.60;99.90
9043;DHT22;4556;49.150;8.808;2023-03-26T17:09:54;7.70;99.90
9043;DHT22;4556;49.150;8.808;2023-03-26T17:12:41;7.50;99.90
9043;DHT22;4556;49.150;8.808;2023-03-26T17:15:19;7.70;99.90
9043;DHT22;4556;49.150;8.808;2023-03-26T17:20:41;7.60;99.90
9043;DHT22;4556;49.150;8.808;2023-03-26T17:23:25;7.50;99.90
9043;DHT22;4556;49.150;8.808;2023-03-26T17:26:07;7.90;99.90
9043;DHT22;4556;49.150;8.808;2023-03-26T17:29:18;7.50;99.90
9043;DHT22;4556;49.150;8.808;2023-03-26T17:32:05;8.30;99.90
9043;DHT22;4556;49.150;8.808;2023-03-26T17:34:55;7.50;99.90
9043;DHT22;4556;49.150;8.808;2023-03-26T17:37:43;7.50;99.90
9043;DHT22;4556;49.150;8.808;2023-03-26T17:40:44;7.50;99.90
9043;DHT22;4556;49.150;8.808;2023-03-26T17:44:22;7.60;99.90
9043;DHT22;4556;49.150;8.808;2023-03-26T17:46:46;7.60;99.90
9043;DHT22;4556;49.150;8.808;2023-03-26T17:49:21;7.60;99.90
9043;DHT22;4556;49.150;8.808;2023-03-26T17:52:01;7.70;99.90
9043;DHT22;4556;49.150;8.808;2023-03-26T17:54:33;7.60;99.90
9043;DHT22;4556;49.150;8.808;2023-03-26T17:57:05;7.60;99.90
9043;DHT22;4556;49.150;8.808;2023-03-26T17:59:36;7.60;99.90
9043;DHT22;4556;49.150;8.808;2023-03-26T18:02:03;8.20;99.90
9043;DHT22;4556;49.150;8.808;2023-03-26T18:04:33;7.60;99.90
9043;DHT22;4556;49.150;8.808;2023-03-26T18:10:16;7.50;99.90
9043;DHT22;4556;49.150;8.808;2023-03-26T18:13:05;7.50;99.90
9043;DHT22;4556;49.150;8.808;2023-03-26T18:15:45;7.50;99.90
9043;DHT22;4556;49.150;8.808;2023-03-26T18:18:21;7.50;99.90
9043;DHT22;4556;49.150;8.808;2023-03-26T18:20:53;7.50;99.90
9043;DHT22;4556;49.150;8.808;2023-03-26T18:23:48;7.90;99.90
9043;DHT22;4556;49.150;8.808;2023-03-26T18:26:31;7.40;99.90
9043;DHT22;4556;49.150;8.808;2023-03-26T18:29:11;7.50;99.90
9043;DHT22;4556;49.150;8.808;2023-03-26T18:32:08;7.50;99.90
9043;DHT22;4556;49.150;8.808;2023-03-26T18:34:59;7.70;99.90
9043;DHT22;4556;49.150;8.808;2023-03-26T18:37:28;7.40;99.90
9043;DHT22;4556;49.150;8.808;2023-03-26T18:39:58;7.40;99.90
9043;DHT22;4556;49.150;8.808;2023-03-26T18:42:49;7.60;99.90
9043;DHT22;4556;49.150;8.808;2023-03-26T18:45:26;7.40;99.90
9043;DHT22;4556;49.150;8.808;2023-03-26T18:48:11;7.50;99.90
9043;DHT22;4556;49.150;8.808;2023-03-26T18:50:50;7.50;99.90
9043;DHT22;4556;49.150;8.808;2023-03-26T18:53:21;7.50;99.90
9043;DHT22;4556;49.150;8.808;2023-03-26T18:59:04;7.50;99.90
9043;DHT22;4556;49.150;8.808;2023-03-26T19:01:36;7.40;99.90
9043;DHT22;4556;49.150;8.808;2023-03-26T19:04:04;7.50;99.90
9043;DHT22;4556;49.150;8.808;2023-03-26T19:06:42;7.60;99.90